Time;durP1;ratioP1;P1;durP2;ratioP2;P2;SDS_P1;SDS_P2;PMS_P1;PMS_P2;Temp;Humidity;BMP_temperature;BMP_pressure;BME280_temperature;BME280_humidity;BME280_pressure;Samples;Min_cycle;Max_cycle;Signal;HPM_P1;HPM_P2
2022/11/29 00:01:16;;;;;;;25.83;16.73;;;-6.60;99.90;;;;;;5016330;28;20263;-79
2022/11/29 00:03:42;;;;;;;25.60;14.97;;;-6.50;99.90;;;;;;5019469;28;20196;-79
2022/11/29 00:06:11;;;;;;;23.73;14.90;;;-6.40;99.90;;;;;;5014494;28;20491;-80
2022/11/29 00:08:37;;;;;;;26.47;14.20;;;-7.50;99.90;;;;;;5026893;28;20724;-79
2022/11/29 00:11:04;;;;;;;35.00;15.10;;;-7.30;99.90;;;;;;5015228;28;20431;-79
2022/11/29 00:13:30;;;;;;;26.13;16.20;;;-7.70;99.90;;;;;;5016175;28;20223;-81
2022/11/29 00:16:01;;;;;;;27.57;16.33;;;-7.40;99.90;;;;;;5014366;28;20745;-81
2022/11/29 00:18:27;;;;;;;26.20;14.50;;;-7.40;99.90;;;;;;5013808;28;20200;-81
2022/11/29 00:20:52;;;;;;;24.03;14.17;;;-6.90;99.90;;;;;;5020715;28;20588;-81
2022/11/29 00:23:18;;;;;;;27.70;16.70;;;-7.00;99.90;;;;;;5014230;28;20184;-78
2022/11/29 00:25:44;;;;;;;26.20;16.17;;;-7.00;99.90;;;;;;5014109;28;20297;-79
2022/11/29 00:28:09;;;;;;;29.90;17.10;;;-7.80;99.90;;;;;;5016462;28;20207;-81
2022/11/29 00:30:35;;;;;;;24.17;15.17;;;-7.50;99.90;;;;;;5027759;28;20181;-81
2022/11/29 00:33:02;;;;;;;23.80;17.33;;;-7.50;99.90;;;;;;5020163;28;20231;-81
2022/11/29 00:35:27;;;;;;;21.47;14.20;;;-7.80;99.90;;;;;;5013889;28;20180;-81
2022/11/29 00:37:53;;;;;;;22.90;14.03;;;-7.20;99.90;;;;;;5027742;28;20441;-81
2022/11/29 00:40:19;;;;;;;25.37;15.73;;;-7.10;99.90;;;;;;5014339;28;20185;-77
2022/11/29 00:42:45;;;;;;;26.00;14.83;;;-7.30;99.90;;;;;;5018522;28;20187;-77
2022/11/29 00:45:11;;;;;;;21.03;14.07;;;-7.40;99.90;;;;;;5018101;28;20245;-77
2022/11/29 00:47:36;;;;;;;21.40;13.87;;;-6.50;99.90;;;;;;5018080;28;20207;-79
2022/11/29 00:50:03;;;;;;;25.50;15.13;;;-6.10;99.90;;;;;;5018169;28;20185;-81
2022/11/29 00:52:29;;;;;;;27.30;15.57;;;-6.80;99.90;;;;;;5018019;28;20181;-79
2022/11/29 00:54:54;;;;;;;30.47;14.70;;;-7.00;99.90;;;;;;5017335;28;20460;-78
2022/11/29 00:57:20;;;;;;;19.13;13.33;;;-7.40;99.90;;;;;;5017581;28;20380;-77
2022/11/29 00:59:46;;;;;;;26.20;14.37;;;-7.10;99.90;;;;;;5017815;28;20176;-77
2022/11/29 01:02:11;;;;;;;24.97;13.97;;;-7.20;99.90;;;;;;5023165;28;20195;-79
2022/11/29 01:04:37;;;;;;;30.47;14.83;;;-7.70;99.90;;;;;;5017439;28;20222;-81
2022/11/29 01:07:03;;;;;;;17.73;13.60;;;-7.10;99.90;;;;;;5017769;28;20260;-77
2022/11/29 01:09:29;;;;;;;17.57;12.67;;;-7.20;99.90;;;;;;5017763;28;20185;-80
2022/11/29 01:11:54;;;;;;;22.97;13.17;;;-7.10;99.90;;;;;;5021875;28;20279;-80
2022/11/29 01:14:20;;;;;;;21.77;13.93;;;-7.40;99.90;;;;;;5020790;28;20243;-77
2022/11/29 01:16:46;;;;;;;22.97;13.77;;;-7.10;99.90;;;;;;5017613;28;20210;-80
2022/11/29 01:19:13;;;;;;;19.90;12.20;;;-7.40;99.90;;;;;;5017366;28;20210;-78
2022/11/29 01:21:38;;;;;;;20.80;12.97;;;-7.20;99.90;;;;;;5017661;28;20188;-80
2022/11/29 01:24:04;;;;;;;17.60;13.33;;;-7.40;99.90;;;;;;5029565;28;20461;-80
2022/11/29 01:26:30;;;;;;;20.53;13.57;;;-7.10;99.90;;;;;;5017015;28;20181;-82
2022/11/29 01:28:57;;;;;;;18.87;11.93;;;-5.20;99.90;;;;;;5017317;28;20176;-77
2022/11/29 01:31:29;;;;;;;23.00;14.47;;;-6.70;99.90;;;;;;5019348;28;20175;-75
2022/11/29 01:33:58;;;;;;;21.03;13.10;;;-7.10;99.90;;;;;;5032744;28;20769;-81
2022/11/29 01:36:24;;;;;;;17.73;11.40;;;-6.90;99.90;;;;;;5030574;28;20423;-79
2022/11/29 01:38:50;;;;;;;17.77;12.93;;;-7.00;99.90;;;;;;5017203;28;20436;-79
2022/11/29 01:41:22;;;;;;;15.27;11.70;;;-6.60;99.90;;;;;;5016685;28;20429;-79
2022/11/29 01:44:12;;;;;;;21.60;12.23;;;-6.30;99.90;;;;;;5028948;28;20500;-79
2022/11/29 01:46:40;;;;;;;22.93;12.40;;;-6.80;99.90;;;;;;5016702;28;20705;-79
2022/11/29 01:49:23;;;;;;;16.90;12.17;;;-7.00;99.90;;;;;;5016829;28;20433;-79
2022/11/29 01:51:56;;;;;;;17.27;11.03;;;-8.20;99.90;;;;;;5016969;28;20425;-80
2022/11/29 01:54:22;;;;;;;18.93;12.63;;;-7.60;99.90;;;;;;5015812;28;20972;-79
2022/11/29 01:56:49;;;;;;;22.20;13.93;;;-7.30;99.90;;;;;;5016942;28;20522;-80
2022/11/29 01:59:21;;;;;;;17.67;11.50;;;-7.80;99.90;;;;;;5016600;28;20271;-80
2022/11/29 02:01:47;;;;;;;18.37;10.83;;;-7.70;99.90;;;;;;5019253;28;20433;-80
2022/11/29 02:04:13;;;;;;;19.37;13.33;;;-7.70;99.90;;;;;;5016628;28;20960;-76
2022/11/29 02:06:40;;;;;;;19.07;11.77;;;-7.50;99.90;;;;;;5017983;28;20610;-81
2022/11/29 02:09:21;;;;;;;18.93;11.30;;;-6.70;99.90;;;;;;5016358;28;20461;-76
2022/11/29 02:11:58;;;;;;;12.83;11.33;;;-7.40;99.90;;;;;;5022866;28;20424;-79
2022/11/29 02:14:24;;;;;;;13.73;10.60;;;-7.00;99.90;;;;;;5016205;28;20888;-79
2022/11/29 02:17:00;;;;;;;17.93;12.20;;;-7.20;99.90;;;;;;5016225;28;20524;-76
2022/11/29 02:20:06;;;;;;;18.50;11.53;;;-7.30;99.90;;;;;;5021962;28;20586;-81
2022/11/29 02:22:45;;;;;;;21.00;11.17;;;-7.20;99.90;;;;;;5017466;28;20436;-73
2022/11/29 02:25:14;;;;;;;19.90;11.03;;;-7.30;99.90;;;;;;5016859;28;20902;-75
2022/11/29 02:27:55;;;;;;;17.87;10.73;;;-8.00;99.90;;;;;;5016587;28;20428;-73
2022/11/29 02:31:02;;;;;;;19.10;11.53;;;-7.80;99.90;;;;;;5015297;28;20488;-81
2022/11/29 02:33:51;;;;;;;13.23;8.80;;;-7.60;99.90;;;;;;5030960;28;20697;-75
2022/11/29 02:36:35;;;;;;;18.03;10.73;;;-7.90;99.90;;;;;;5014257;28;20805;-76
2022/11/29 02:39:07;;;;;;;15.27;9.50;;;-8.00;99.90;;;;;;5016143;28;20458;-79
2022/11/29 02:41:44;;;;;;;17.07;9.53;;;-7.80;99.90;;;;;;5024245;28;20424;-75
2022/11/29 02:44:47;;;;;;;14.10;9.93;;;-7.90;99.90;;;;;;5015995;28;20459;-73
2022/11/29 02:47:47;;;;;;;15.87;11.30;;;-7.50;99.90;;;;;;5015926;28;20426;-76
2022/11/29 02:50:18;;;;;;;14.47;11.07;;;-7.80;99.90;;;;;;5015827;28;20473;-73
2022/11/29 02:53:07;;;;;;;18.87;10.17;;;-7.70;99.90;;;;;;5016034;28;20466;-73
2022/11/29 02:55:50;;;;;;;15.50;10.50;;;-7.40;99.90;;;;;;5008617;28;20522;-74
2022/11/29 02:58:15;;;;;;;15.30;9.50;;;-7.40;99.90;;;;;;5024952;28;20809;-74
2022/11/29 03:00:57;;;;;;;14.40;10.73;;;-7.40;99.90;;;;;;5022731;28;20442;-77
2022/11/29 03:03:51;;;;;;;16.30;9.53;;;-7.10;99.90;;;;;;5018366;28;20190;-83
2022/11/29 03:06:38;;;;;;;18.83;14.00;;;-6.60;99.90;;;;;;5014765;28;20449;-77
2022/11/29 03:09:21;;;;;;;15.13;10.17;;;-6.70;99.90;;;;;;5015389;28;20455;-80
2022/11/29 03:12:01;;;;;;;22.40;13.13;;;-6.40;99.90;;;;;;5015400;28;20430;-76
2022/11/29 03:14:46;;;;;;;18.17;11.57;;;-6.80;99.90;;;;;;5015447;28;20456;-80
2022/11/29 03:17:36;;;;;;;17.40;12.10;;;-6.80;99.90;;;;;;5014906;28;20419;-77
2022/11/29 03:20:24;;;;;;;17.60;10.70;;;-6.30;99.90;;;;;;5015311;28;20557;-81
2022/11/29 03:23:15;;;;;;;14.13;9.53;;;-6.70;99.90;;;;;;5015333;28;20424;-78
2022/11/29 03:25:52;;;;;;;14.20;11.13;;;-6.70;99.90;;;;;;5023430;28;20483;-84
2022/11/29 03:28:28;;;;;;;12.27;9.90;;;-6.60;99.90;;;;;;5015307;28;20436;-80
2022/11/29 03:31:03;;;;;;;12.50;9.97;;;-6.70;99.90;;;;;;5015323;28;20955;-81
2022/11/29 03:33:49;;;;;;;16.30;10.37;;;-6.80;99.90;;;;;;5015111;28;20895;-79
2022/11/29 03:36:41;;;;;;;14.43;9.53;;;-7.10;99.90;;;;;;5014231;28;20506;-76
2022/11/29 03:39:16;;;;;;;13.33;10.60;;;-7.10;99.90;;;;;;5041851;28;20439;-79
2022/11/29 03:41:54;;;;;;;20.83;11.30;;;-7.20;99.90;;;;;;5014977;28;20452;-78
2022/11/29 03:44:26;;;;;;;20.07;11.80;;;-7.00;99.90;;;;;;5013787;28;21048;-81
2022/11/29 03:47:03;;;;;;;14.60;10.43;;;-9.20;99.90;;;;;;5046308;28;20917;-82
2022/11/29 03:49:41;;;;;;;17.17;10.47;;;-9.30;99.90;;;;;;5022003;28;20439;-79
2022/11/29 03:52:25;;;;;;;18.70;10.07;;;-10.00;99.90;;;;;;5014577;28;20425;-77
2022/11/29 03:55:29;;;;;;;19.33;11.83;;;-9.90;99.90;;;;;;5015291;28;20458;-81
2022/11/29 03:58:13;;;;;;;12.87;9.83;;;-10.00;99.90;;;;;;5028757;28;20432;-82
2022/11/29 04:00:52;;;;;;;14.97;11.87;;;-9.20;99.90;;;;;;5015011;28;20503;-82
2022/11/29 04:03:39;;;;;;;15.60;10.10;;;-9.50;99.90;;;;;;5015049;28;20452;-78
2022/11/29 04:06:38;;;;;;;21.00;11.53;;;-9.70;99.90;;;;;;5014320;28;20544;-78
2022/11/29 04:09:22;;;;;;;15.90;12.57;;;-9.60;99.90;;;;;;5014584;28;20425;-80
2022/11/29 04:11:59;;;;;;;19.63;10.33;;;-9.50;99.90;;;;;;5014366;28;21350;-81
2022/11/29 04:14:50;;;;;;;19.13;11.57;;;-9.50;99.90;;;;;;5027181;28;20428;-81
2022/11/29 04:17:33;;;;;;;18.70;11.70;;;-9.40;99.90;;;;;;5020446;28;20441;-77
2022/11/29 04:20:09;;;;;;;16.07;10.40;;;-9.70;99.90;;;;;;5013304;28;20457;-80
2022/11/29 04:23:05;;;;;;;14.07;10.53;;;-10.20;99.90;;;;;;5014071;28;20442;-79
2022/11/29 04:26:08;;;;;;;15.00;9.83;;;-10.30;99.90;;;;;;5014045;28;20461;-84
2022/11/29 04:29:11;;;;;;;15.17;10.90;;;-9.20;99.90;;;;;;5014381;28;20450;-80
2022/11/29 04:31:54;;;;;;;17.40;10.73;;;-9.60;99.90;;;;;;5029456;28;20433;-80
2022/11/29 04:34:44;;;;;;;19.20;10.97;;;-10.20;99.90;;;;;;5014429;28;20943;-79
2022/11/29 04:37:23;;;;;;;18.93;10.83;;;-10.70;99.90;;;;;;5019978;28;20526;-81
2022/11/29 04:39:58;;;;;;;14.77;10.73;;;-10.00;99.90;;;;;;5017606;28;21352;-81
2022/11/29 04:42:41;;;;;;;21.43;10.60;;;-9.90;99.90;;;;;;5014410;28;20422;-79
2022/11/29 04:45:50;;;;;;;13.87;9.87;;;-9.60;99.90;;;;;;5017316;28;20456;-81
2022/11/29 04:49:02;;;;;;;22.13;13.13;;;-8.90;99.90;;;;;;5007942;28;20476;-81
2022/11/29 04:51:39;;;;;;;24.23;10.80;;;-9.10;99.90;;;;;;5003752;28;20484;-81
2022/11/29 04:54:29;;;;;;;14.10;9.53;;;-9.10;99.90;;;;;;5014186;28;20442;-82
2022/11/29 04:57:24;;;;;;;13.10;10.60;;;-9.40;99.90;;;;;;5014338;28;20426;-79
2022/11/29 05:00:09;;;;;;;16.17;10.60;;;-9.40;99.90;;;;;;5014284;28;20431;-78
2022/11/29 05:02:57;;;;;;;18.10;11.40;;;-9.40;99.90;;;;;;5023989;28;20436;-82
2022/11/29 05:05:42;;;;;;;19.93;12.30;;;-10.00;99.90;;;;;;5046188;28;20473;-81
2022/11/29 05:08:14;;;;;;;14.90;12.67;;;-10.00;99.90;;;;;;5026334;28;20500;-81
2022/11/29 05:11:00;;;;;;;14.23;10.30;;;-10.00;99.90;;;;;;5014225;28;20485;-81
2022/11/29 05:13:55;;;;;;;13.20;10.00;;;-10.70;99.90;;;;;;5018593;28;20419;-82
2022/11/29 05:16:33;;;;;;;16.90;12.23;;;-10.90;99.90;;;;;;5014044;28;20432;-82
2022/11/29 05:19:17;;;;;;;19.03;11.43;;;-10.30;99.90;;;;;;5013666;28;20429;-79
2022/11/29 05:22:09;;;;;;;16.83;11.60;;;-10.60;99.90;;;;;;5014213;28;20556;-84
2022/11/29 05:25:12;;;;;;;17.83;11.07;;;-10.00;99.90;;;;;;5014457;28;20465;-82
2022/11/29 05:27:50;;;;;;;16.23;11.33;;;-10.30;99.90;;;;;;5021612;28;20430;-80
2022/11/29 05:30:42;;;;;;;15.93;10.80;;;-10.70;99.90;;;;;;5017381;28;20430;-82
2022/11/29 05:33:48;;;;;;;15.57;10.30;;;-9.50;99.90;;;;;;5019340;28;20428;-77
2022/11/29 05:36:38;;;;;;;18.37;11.77;;;-9.40;99.90;;;;;;5017611;28;20434;-83
2022/11/29 05:39:10;;;;;;;18.20;11.87;;;-9.40;99.90;;;;;;5017145;28;20426;-83
2022/11/29 05:41:38;;;;;;;18.00;10.50;;;-8.50;99.90;;;;;;5017218;28;20181;-81
2022/11/29 05:44:29;;;;;;;12.93;10.43;;;-9.20;99.90;;;;;;5016980;28;20434;-80
2022/11/29 05:47:04;;;;;;;12.67;10.07;;;-9.40;99.90;;;;;;5016779;28;20451;-79
2022/11/29 05:49:35;;;;;;;13.87;10.47;;;-9.60;99.90;;;;;;5016909;28;20429;-80
2022/11/29 05:52:23;;;;;;;16.53;10.80;;;-10.00;99.90;;;;;;5017132;28;20419;-80
2022/11/29 05:55:09;;;;;;;16.07;9.83;;;-9.90;99.90;;;;;;5017302;28;20457;-80
2022/11/29 05:57:44;;;;;;;13.23;9.77;;;-9.50;99.90;;;;;;5016717;28;20429;-82
2022/11/29 06:00:13;;;;;;;15.73;10.67;;;-9.70;99.90;;;;;;5017164;28;20429;-82
2022/11/29 06:03:02;;;;;;;15.13;11.80;;;-10.30;99.90;;;;;;5015853;28;20464;-79
2022/11/29 06:05:48;;;;;;;15.43;11.00;;;-9.80;99.90;;;;;;5016360;28;20523;-83
2022/11/29 06:08:50;;;;;;;17.70;11.10;;;-8.90;99.90;;;;;;5016687;28;20299;-81
2022/11/29 06:11:31;;;;;;;14.87;10.57;;;-10.50;99.90;;;;;;5023116;28;20177;-80
2022/11/29 06:14:04;;;;;;;16.97;10.63;;;-10.20;99.90;;;;;;5016636;28;20176;-80
2022/11/29 06:17:01;;;;;;;17.70;10.00;;;-10.30;99.90;;;;;;5023877;28;20180;-85
2022/11/29 06:19:38;;;;;;;14.97;10.27;;;-10.40;99.90;;;;;;5019686;28;20186;-83
2022/11/29 06:22:38;;;;;;;18.07;10.77;;;-10.20;99.90;;;;;;5017180;28;20181;-80
2022/11/29 06:25:29;;;;;;;18.43;11.47;;;-10.40;99.90;;;;;;5016464;28;20204;-79
2022/11/29 06:28:08;;;;;;;13.27;9.93;;;-11.20;99.90;;;;;;5017535;28;20185;-85
2022/11/29 06:31:16;;;;;;;13.80;10.50;;;-10.70;99.90;;;;;;5021309;28;20173;-79
2022/11/29 06:33:45;;;;;;;13.80;10.33;;;-10.00;99.90;;;;;;5020448;28;20238;-81
2022/11/29 06:36:19;;;;;;;15.90;9.67;;;-10.10;99.90;;;;;;5016665;28;20192;-77
2022/11/29 06:38:46;;;;;;;13.77;10.47;;;-10.30;99.90;;;;;;5019070;28;20325;-82
2022/11/29 06:41:22;;;;;;;17.33;10.53;;;-10.60;99.90;;;;;;5024296;28;20250;-83
2022/11/29 06:43:49;;;;;;;19.27;10.13;;;-10.10;99.90;;;;;;5016538;28;20978;-83
2022/11/29 06:46:22;;;;;;;22.63;10.93;;;-9.60;99.90;;;;;;5015675;28;20220;-79
2022/11/29 06:48:55;;;;;;;12.13;10.47;;;-9.40;99.90;;;;;;5029384;28;20525;-83
2022/11/29 06:51:57;;;;;;;18.10;10.03;;;-9.50;99.90;;;;;;5016767;28;20706;-83
2022/11/29 06:54:41;;;;;;;18.10;12.23;;;-9.80;99.90;;;;;;5016124;28;20767;-80
2022/11/29 06:57:25;;;;;;;21.50;10.80;;;-10.00;99.90;;;;;;5030643;28;20183;-83
2022/11/29 07:00:15;;;;;;;22.27;13.40;;;-9.60;99.90;;;;;;5015498;28;20235;-85
2022/11/29 07:03:01;;;;;;;13.93;10.80;;;-9.90;99.90;;;;;;5021064;28;20184;-80
2022/11/29 07:05:28;;;;;;;12.87;10.03;;;-11.00;99.90;;;;;;5016923;28;20278;-82
2022/11/29 07:07:59;;;;;;;23.50;12.80;;;-10.90;99.90;;;;;;5015824;28;20438;-83
2022/11/29 07:10:26;;;;;;;16.33;11.57;;;-10.20;99.90;;;;;;5016125;28;20226;-85
2022/11/29 07:12:52;;;;;;;21.07;15.10;;;-9.80;99.90;;;;;;5021483;28;20238;-88
2022/11/29 07:15:20;;;;;;;33.53;14.83;;;-10.90;99.90;;;;;;5018187;28;20189;-82
2022/11/29 07:18:17;;;;;;;20.80;12.90;;;-11.20;99.90;;;;;;5017983;28;20908;-84
2022/11/29 07:21:36;;;;;;;23.83;12.87;;;-11.10;99.90;;;;;;5019560;28;20188;-83
2022/11/29 07:24:40;;;;;;;21.97;11.00;;;-9.90;99.90;;;;;;5018135;28;20271;-77
2022/11/29 07:27:14;;;;;;;14.60;11.23;;;-10.70;99.90;;;;;;5026132;28;20786;-84
2022/11/29 07:30:11;;;;;;;16.70;10.43;;;-10.50;99.90;;;;;;5015103;28;20174;-80
2022/11/29 07:32:50;;;;;;;16.53;11.60;;;-10.70;99.90;;;;;;5019954;28;20272;-72
2022/11/29 07:35:45;;;;;;;13.77;9.93;;;-10.50;99.90;;;;;;5015206;28;20261;-77
2022/11/29 07:38:28;;;;;;;16.00;10.40;;;-10.80;99.90;;;;;;5017987;28;20250;-76
2022/11/29 07:40:57;;;;;;;22.03;11.53;;;-9.70;99.90;;;;;;5028051;28;20181;-76
2022/11/29 07:43:35;;;;;;;16.17;10.30;;;-9.30;99.90;;;;;;5014836;28;20219;-79
2022/11/29 07:46:01;;;;;;;19.27;11.00;;;-9.00;99.90;;;;;;5022509;28;20240;-78
2022/11/29 07:48:27;;;;;;;18.87;12.23;;;-8.80;99.90;;;;;;5016818;28;20581;-79
2022/11/29 07:50:54;;;;;;;18.10;12.97;;;-8.40;99.90;;;;;;5015750;28;20188;-74
2022/11/29 07:53:21;;;;;;;21.00;11.10;;;-8.60;99.90;;;;;;5022058;28;20196;-80
2022/11/29 07:55:48;;;;;;;21.03;12.60;;;-8.70;99.90;;;;;;5016227;28;20188;-84
2022/11/29 07:58:15;;;;;;;18.20;12.63;;;-8.50;99.90;;;;;;5021041;28;20188;-76
2022/11/29 08:00:42;;;;;;;30.73;14.80;;;-8.20;99.90;;;;;;5017545;28;20271;-75
2022/11/29 08:03:08;;;;;;;26.03;15.20;;;-8.30;99.90;;;;;;5028205;28;20449;-75
2022/11/29 08:05:36;;;;;;;23.07;11.83;;;-8.80;99.90;;;;;;5029059;28;20459;-82
2022/11/29 08:08:02;;;;;;;21.23;13.93;;;-8.70;99.90;;;;;;5029027;28;20184;-78
2022/11/29 08:10:28;;;;;;;25.03;14.07;;;-8.30;99.90;;;;;;5030981;28;20928;-81
2022/11/29 08:12:54;;;;;;;28.07;14.03;;;-7.80;99.90;;;;;;5030313;28;20426;-81
2022/11/29 08:15:21;;;;;;;24.33;15.10;;;-6.50;99.90;;;;;;5031759;28;20203;-81
2022/11/29 08:17:47;;;;;;;33.10;18.10;;;-7.20;99.90;;;;;;5026231;28;20554;-83
2022/11/29 08:20:15;;;;;;;40.03;16.33;;;-6.60;99.90;;;;;;5031218;28;20201;-84
2022/11/29 08:22:41;;;;;;;53.53;16.90;;;-10.30;99.90;;;;;;5019470;28;20188;-86
2022/11/29 08:25:08;;;;;;;56.63;16.50;;;-9.50;99.90;;;;;;5027433;28;20500;-82
2022/11/29 08:27:36;;;;;;;47.47;16.50;;;-9.40;99.90;;;;;;5025036;28;20594;-81
2022/11/29 08:30:03;;;;;;;72.30;18.67;;;-8.10;99.90;;;;;;5016741;28;20425;-74
2022/11/29 08:32:29;;;;;;;29.00;15.40;;;-7.80;99.90;;;;;;5024967;28;20449;-80
2022/11/29 08:34:55;;;;;;;40.60;14.60;;;-8.40;99.90;;;;;;5015257;28;21169;-73
2022/11/29 08:37:20;;;;;;;53.07;17.07;;;-9.70;99.90;;;;;;5018922;28;20212;-76
2022/11/29 08:39:46;;;;;;;43.30;18.37;;;-8.90;99.90;;;;;;5014670;28;20203;-75
2022/11/29 08:42:12;;;;;;;66.83;16.13;;;-7.90;99.90;;;;;;5014916;28;20642;-75
2022/11/29 08:44:37;;;;;;;41.87;13.87;;;-8.30;99.90;;;;;;5019308;28;20209;-73
2022/11/29 08:50:00;;;;;;;35.87;12.53;;;-9.40;99.90;;;;;;5021154;28;20199;-76
2022/11/29 08:55:19;;;;;;;15.07;12.37;;;-9.10;99.90;;;;;;5018023;28;20436;-76
2022/11/29 08:57:49;;;;;;;26.93;11.97;;;-8.50;99.90;;;;;;5029686;28;20429;-82
2022/11/29 09:00:15;;;;;;;28.90;11.60;;;-8.10;99.90;;;;;;5014561;28;20854;-81
2022/11/29 09:02:41;;;;;;;20.27;12.23;;;-6.60;99.90;;;;;;5017468;28;20492;-80
2022/11/29 09:05:09;;;;;;;27.33;12.53;;;-9.20;99.90;;;;;;5030179;28;20457;-79
2022/11/29 09:07:35;;;;;;;23.63;12.43;;;-8.80;99.90;;;;;;5017603;28;20205;-80
2022/11/29 09:10:04;;;;;;;31.17;12.33;;;-9.10;99.90;;;;;;5019017;28;20801;-82
2022/11/29 09:12:36;;;;;;;18.93;10.93;;;-9.50;99.90;;;;;;5017809;28;20228;-77
2022/11/29 09:15:04;;;;;;;22.60;11.97;;;-9.90;99.90;;;;;;5020545;28;20450;-84
2022/11/29 09:17:32;;;;;;;20.87;11.40;;;-9.10;99.90;;;;;;5024047;28;20235;-80
2022/11/29 09:19:58;;;;;;;28.23;12.23;;;-9.40;99.90;;;;;;5021982;28;20180;-77
2022/11/29 09:22:24;;;;;;;27.43;12.57;;;-10.20;99.90;;;;;;5017474;28;20556;-77
2022/11/29 09:24:50;;;;;;;41.00;13.43;;;-10.80;99.90;;;;;;5030347;28;20884;-79
2022/11/29 09:27:18;;;;;;;23.83;11.20;;;-9.70;99.90;;;;;;5018171;28;20275;-79
2022/11/29 09:29:44;;;;;;;28.27;13.23;;;-9.90;99.90;;;;;;5017707;28;20187;-73
2022/11/29 09:32:10;;;;;;;27.87;12.87;;;-8.20;99.90;;;;;;5025114;28;20180;-74
2022/11/29 09:34:36;;;;;;;29.23;12.43;;;-10.00;99.90;;;;;;5024363;28;20193;-74
2022/11/29 09:37:03;;;;;;;25.00;12.90;;;-10.00;99.90;;;;;;5022470;28;20193;-75
2022/11/29 09:39:29;;;;;;;28.20;11.87;;;-9.70;99.90;;;;;;5016673;28;20190;-74
2022/11/29 09:42:10;;;;;;;24.27;12.27;;;-10.00;99.90;;;;;;5025063;28;20422;-79
2022/11/29 09:44:51;;;;;;;34.33;13.53;;;-11.50;99.90;;;;;;5017183;28;20207;-75
2022/11/29 09:47:20;;;;;;;39.23;12.50;;;-12.20;99.90;;;;;;5029135;28;20585;-74
2022/11/29 09:49:58;;;;;;;15.07;11.47;;;-11.80;99.90;;;;;;5029685;28;20469;-73
2022/11/29 09:52:30;;;;;;;32.83;12.50;;;-11.10;99.90;;;;;;5017095;28;20477;-75
2022/11/29 09:55:09;;;;;;;34.87;12.00;;;-9.80;99.90;;;;;;5028319;28;20635;-73
2022/11/29 09:57:37;;;;;;;45.63;13.47;;;-9.50;99.90;;;;;;5017751;28;20208;-72
2022/11/29 10:00:12;;;;;;;26.03;13.27;;;-7.30;99.90;;;;;;5017009;28;20272;-74
2022/11/29 10:02:46;;;;;;;23.37;13.47;;;-8.80;99.90;;;;;;5022780;28;20629;-80
2022/11/29 10:05:30;;;;;;;27.33;13.30;;;-8.60;99.90;;;;;;5028924;28;20208;-78
2022/11/29 10:08:02;;;;;;;37.43;13.03;;;-6.50;99.90;;;;;;5016499;28;20197;-73
2022/11/29 10:10:30;;;;;;;24.20;12.27;;;-9.50;99.90;;;;;;5016474;28;20185;-78
2022/11/29 10:13:06;;;;;;;34.77;14.70;;;-9.60;99.90;;;;;;5030218;28;20496;-76
2022/11/29 10:15:39;;;;;;;36.00;13.73;;;-10.80;99.90;;;;;;5029843;28;20184;-82
2022/11/29 10:18:30;;;;;;;19.27;13.13;;;-10.60;99.90;;;;;;5016579;28;20220;-74
2022/11/29 10:21:01;;;;;;;25.03;13.27;;;-10.40;99.90;;;;;;5016074;28;20189;-76
2022/11/29 10:23:53;;;;;;;19.60;13.77;;;-11.50;99.90;;;;;;5021877;28;20609;-79
2022/11/29 10:26:19;;;;;;;33.67;12.47;;;-11.00;99.90;;;;;;5026097;28;20287;-79
2022/11/29 10:28:48;;;;;;;26.47;12.00;;;-10.20;99.90;;;;;;5028834;28;20181;-78
2022/11/29 10:31:23;;;;;;;14.93;11.30;;;-10.00;99.90;;;;;;5029952;28;20189;-72
2022/11/29 10:33:49;;;;;;;14.00;9.83;;;-10.20;99.90;;;;;;5018665;28;20184;-77
2022/11/29 10:36:32;;;;;;;16.40;11.30;;;-9.70;99.90;;;;;;5031808;28;20618;-72
2022/11/29 10:39:03;;;;;;;14.20;10.47;;;-10.90;99.90;;;;;;5015884;28;20192;-74
2022/11/29 10:41:29;;;;;;;14.00;9.47;;;-10.80;99.90;;;;;;5027837;28;20185;-76
2022/11/29 10:43:57;;;;;;;11.13;9.47;;;-9.80;99.90;;;;;;5015744;28;20624;-76
2022/11/29 10:46:34;;;;;;;16.13;11.70;;;-8.50;99.90;;;;;;5025774;28;20292;-74
2022/11/29 10:49:05;;;;;;;16.73;11.10;;;-11.50;99.90;;;;;;5021467;28;20191;-73
2022/11/29 10:51:33;;;;;;;20.83;11.57;;;-11.50;99.90;;;;;;5022567;28;20235;-74
2022/11/29 10:54:17;;;;;;;11.70;10.43;;;-11.20;99.90;;;;;;5020096;28;20207;-73
2022/11/29 10:56:44;;;;;;;19.70;12.37;;;-10.50;99.90;;;;;;5019160;28;20181;-73
2022/11/29 10:59:25;;;;;;;13.50;11.90;;;-10.60;99.90;;;;;;5018408;28;20488;-73
2022/11/29 11:01:51;;;;;;;21.13;12.03;;;-10.20;99.90;;;;;;5024347;28;20250;-73
2022/11/29 11:04:30;;;;;;;17.77;10.67;;;-9.70;99.90;;;;;;5025436;28;20241;-74
2022/11/29 11:07:00;;;;;;;17.87;11.10;;;-9.90;99.90;;;;;;5016426;28;20190;-73
2022/11/29 11:09:45;;;;;;;13.27;11.67;;;-9.90;99.90;;;;;;5027862;28;20639;-73
2022/11/29 11:12:14;;;;;;;14.10;12.60;;;-11.10;99.90;;;;;;5015576;28;20181;-74
2022/11/29 11:14:42;;;;;;;21.27;10.40;;;-10.40;99.90;;;;;;5015012;28;20265;-73
2022/11/29 11:17:24;;;;;;;12.87;10.10;;;-10.90;99.90;;;;;;5020617;28;20272;-73
2022/11/29 11:19:59;;;;;;;10.83;9.30;;;-10.50;99.90;;;;;;5018516;28;20248;-72
2022/11/29 11:22:26;;;;;;;13.97;11.33;;;-11.00;99.90;;;;;;5030586;28;20181;-71
2022/11/29 11:24:59;;;;;;;14.37;11.60;;;-10.70;99.90;;;;;;5016004;28;20218;-74
2022/11/29 11:27:38;;;;;;;12.60;11.30;;;-9.70;99.90;;;;;;5014657;28;20166;-72
2022/11/29 11:30:21;;;;;;;12.27;10.43;;;-9.90;99.90;;;;;;5015335;28;20309;-73
2022/11/29 11:33:25;;;;;;;16.17;11.80;;;-10.20;99.90;;;;;;5017885;28;20269;-72
2022/11/29 11:36:09;;;;;;;15.03;10.63;;;-10.40;99.90;;;;;;5015398;28;20256;-74
2022/11/29 11:38:38;;;;;;;21.27;12.03;;;-10.50;99.90;;;;;;5014368;28;20295;-75
2022/11/29 11:42:35;;;;;;;9.97;8.97;;;-9.00;99.90;;;;;;5012947;28;20227;-73
2022/11/29 11:44:18;;;;;;;14.10;11.43;;;-9.30;99.90;;;;;;5014298;28;20185;-72
2022/11/29 11:46:47;;;;;;;16.83;9.67;;;-11.40;99.90;;;;;;5021305;28;20173;-73
2022/11/29 11:49:23;;;;;;;11.53;9.83;;;-10.30;99.90;;;;;;5014602;28;20220;-74
2022/11/29 11:51:49;;;;;;;15.27;11.10;;;-8.50;99.90;;;;;;5020584;28;20212;-84
2022/11/29 11:54:15;;;;;;;11.43;9.90;;;-10.20;99.90;;;;;;5014741;28;20612;-74
2022/11/29 11:56:41;;;;;;;17.17;11.97;;;-9.70;99.90;;;;;;5017645;28;21924;-78
2022/11/29 11:59:18;;;;;;;12.97;10.23;;;-7.80;99.90;;;;;;5014527;28;20269;-83
2022/11/29 12:01:45;;;;;;;15.57;13.20;;;-11.60;99.90;;;;;;5026360;28;20183;-78
2022/11/29 12:04:16;;;;;;;16.47;11.80;;;-9.90;99.90;;;;;;5014928;28;20231;-72
2022/11/29 12:06:59;;;;;;;15.20;13.50;;;-10.80;99.90;;;;;;5013537;28;20184;-77
2022/11/29 12:09:48;;;;;;;19.10;14.10;;;-9.30;99.90;;;;;;5017741;28;20293;-75
2022/11/29 12:12:24;;;;;;;16.57;12.97;;;-9.30;99.90;;;;;;5021037;28;20186;-76
2022/11/29 12:15:07;;;;;;;16.30;12.83;;;-9.00;99.90;;;;;;5040161;28;20199;-75
2022/11/29 12:17:38;;;;;;;18.23;12.83;;;-9.80;99.90;;;;;;5016791;28;20181;-74
2022/11/29 12:20:31;;;;;;;19.60;14.87;;;-9.00;99.90;;;;;;5014210;28;20181;-75
2022/11/29 12:23:11;;;;;;;17.20;13.00;;;-7.90;99.90;;;;;;5014184;28;20196;-73
2022/11/29 12:25:43;;;;;;;17.90;13.47;;;-7.10;99.90;;;;;;5013821;28;20291;-75
2022/11/29 12:28:14;;;;;;;20.30;12.90;;;-8.90;99.90;;;;;;5017957;28;20185;-73
2022/11/29 12:30:55;;;;;;;18.93;13.60;;;-8.10;99.90;;;;;;5014252;28;20181;-75
2022/11/29 12:33:52;;;;;;;19.60;12.67;;;-8.90;99.90;;;;;;5014688;28;20177;-74
2022/11/29 12:36:33;;;;;;;16.80;13.07;;;-6.90;99.90;;;;;;5014350;28;20185;-75
2022/11/29 12:39:39;;;;;;;15.83;12.40;;;-7.70;99.90;;;;;;5023325;28;20185;-72
2022/11/29 12:42:55;;;;;;;17.40;13.47;;;-8.40;99.90;;;;;;5025872;28;20185;-72
2022/11/29 12:45:46;;;;;;;14.20;11.93;;;-9.00;99.90;;;;;;5021033;28;20657;-74
2022/11/29 12:48:36;;;;;;;18.73;13.53;;;-10.90;99.90;;;;;;5019467;28;20613;-74
2022/11/29 12:51:41;;;;;;;18.17;12.97;;;-10.10;99.90;;;;;;5017162;28;20178;-71
2022/11/29 12:54:56;;;;;;;15.90;11.93;;;-9.40;99.90;;;;;;5025138;28;20312;-76
2022/11/29 12:57:28;;;;;;;17.83;12.17;;;-9.20;99.90;;;;;;5019497;28;20484;-73
2022/11/29 13:00:00;;;;;;;16.57;13.00;;;-6.70;99.90;;;;;;5019314;28;20180;-82
2022/11/29 13:03:03;;;;;;;16.73;11.67;;;-7.20;99.90;;;;;;5023204;28;20644;-75
2022/11/29 13:05:50;;;;;;;16.03;11.87;;;-7.10;99.90;;;;;;5020534;28;20220;-77
2022/11/29 13:09:01;;;;;;;18.50;11.33;;;-8.60;99.90;;;;;;5019330;28;20185;-82
2022/11/29 13:11:31;;;;;;;16.17;12.80;;;-10.00;99.90;;;;;;5016918;28;20256;-81
2022/11/29 13:14:14;;;;;;;19.40;12.93;;;-10.60;99.90;;;;;;5024719;28;20220;-77
2022/11/29 13:16:55;;;;;;;22.67;13.37;;;-9.80;99.90;;;;;;5021985;28;20188;-76
2022/11/29 13:19:49;;;;;;;13.37;11.57;;;-10.40;99.90;;;;;;5016646;28;20512;-80
2022/11/29 13:22:38;;;;;;;16.50;12.70;;;-11.80;99.90;;;;;;5017276;28;20220;-82